sensor_id;sensor_type;location;lat;lon;timestamp;temperature;humidity
51655;DHT22;37732;53.106;7.030;2022-12-17T00:02:23;-1.10;99.90
51655;DHT22;37732;53.106;7.030;2022-12-17T00:05:07;-1.10;99.90
51655;DHT22;37732;53.106;7.030;2022-12-17T00:07:57;-0.10;99.90
51655;DHT22;37732;53.106;7.030;2022-12-17T00:10:41;-1.10;99.90
51655;DHT22;37732;53.106;7.030;2022-12-17T00:13:25;-1.10;99.90
51655;DHT22;37732;53.106;7.030;2022-12-17T00:16:10;-1.10;99.90
51655;DHT22;37732;53.106;7.030;2022-12-17T00:18:54;-1.10;99.90
51655;DHT22;37732;53.106;7.030;2022-12-17T00:21:38;-0.70;99.90
51655;DHT22;37732;53.106;7.030;2022-12-17T00:24:23;-0.50;99.90
51655;DHT22;37732;53.106;7.030;2022-12-17T00:27:07;-1.10;99.90
51655;DHT22;37732;53.106;7.030;2022-12-17T00:29:52;-0.20;99.90
51655;DHT22;37732;53.106;7.030;2022-12-17T00:32:36;-1.10;99.90
51655;DHT22;37732;53.106;7.030;2022-12-17T00:35:20;-1.10;99.90
51655;DHT22;37732;53.106;7.030;2022-12-17T00:38:04;-1.00;99.90
51655;DHT22;37732;53.106;7.030;2022-12-17T00:40:50;-1.10;99.90
51655;DHT22;37732;53.106;7.030;2022-12-17T00:43:35;-1.10;99.90
51655;DHT22;37732;53.106;7.030;2022-12-17T00:46:19;-1.10;99.90
51655;DHT22;37732;53.106;7.030;2022-12-17T00:49:11;-1.10;99.90
51655;DHT22;37732;53.106;7.030;2022-12-17T00:51:55;-1.10;99.90
51655;DHT22;37732;53.106;7.030;2022-12-17T00:54:39;-1.10;99.90
51655;DHT22;37732;53.106;7.030;2022-12-17T00:57:23;-1.10;99.90
51655;DHT22;37732;53.106;7.030;2022-12-17T01:00:08;-1.10;99.90
51655;DHT22;37732;53.106;7.030;2022-12-17T01:02:53;-1.10;99.90
51655;DHT22;37732;53.106;7.030;2022-12-17T01:05:37;-1.10;99.90
51655;DHT22;37732;53.106;7.030;2022-12-17T01:08:21;-0.60;99.90
51655;DHT22;37732;53.106;7.030;2022-12-17T01:11:08;-1.20;99.90
51655;DHT22;37732;53.106;7.030;2022-12-17T01:13:52;-1.20;99.90
51655;DHT22;37732;53.106;7.030;2022-12-17T01:16:37;-1.20;99.90
51655;DHT22;37732;53.106;7.030;2022-12-17T01:19:21;-0.60;99.90
51655;DHT22;37732;53.106;7.030;2022-12-17T01:22:06;-1.20;99.90
51655;DHT22;37732;53.106;7.030;2022-12-17T01:24:50;-0.10;99.90
51655;DHT22;37732;53.106;7.030;2022-12-17T01:27:34;-1.30;99.90
51655;DHT22;37732;53.106;7.030;2022-12-17T01:30:19;-1.30;99.90
51655;DHT22;37732;53.106;7.030;2022-12-17T01:33:05;-0.30;99.90
51655;DHT22;37732;53.106;7.030;2022-12-17T01:35:56;-1.30;99.90
51655;DHT22;37732;53.106;7.030;2022-12-17T01:38:42;-0.20;99.90
51655;DHT22;37732;53.106;7.030;2022-12-17T01:41:27;-1.40;99.90
51655;DHT22;37732;53.106;7.030;2022-12-17T01:44:45;-1.00;99.90
51655;DHT22;37732;53.106;7.030;2022-12-17T01:47:39;-1.10;99.90
51655;DHT22;37732;53.106;7.030;2022-12-17T01:50:28;-1.30;99.90
51655;DHT22;37732;53.106;7.030;2022-12-17T01:53:14;-1.30;99.90
51655;DHT22;37732;53.106;7.030;2022-12-17T01:55:59;-1.30;99.90
51655;DHT22;37732;53.106;7.030;2022-12-17T01:58:43;-1.30;99.90
51655;DHT22;37732;53.106;7.030;2022-12-17T02:01:31;-1.30;99.90
51655;DHT22;37732;53.106;7.030;2022-12-17T02:04:16;-1.30;99.90
51655;DHT22;37732;53.106;7.030;2022-12-17T02:16:20;-1.30;99.90
51655;DHT22;37732;53.106;7.030;2022-12-17T02:26:05;-1.30;99.90
51655;DHT22;37732;53.106;7.030;2022-12-17T02:28:53;-1.40;99.90
51655;DHT22;37732;53.106;7.030;2022-12-17T02:31:40;-1.40;99.90
51655;DHT22;37732;53.106;7.030;2022-12-17T02:34:27;-1.40;99.90
51655;DHT22;37732;53.106;7.030;2022-12-17T02:37:11;-1.40;99.90
51655;DHT22;37732;53.106;7.030;2022-12-17T02:39:56;-1.40;99.90
51655;DHT22;37732;53.106;7.030;2022-12-17T02:42:41;-1.30;99.90
51655;DHT22;37732;53.106;7.030;2022-12-17T02:45:26;-1.30;99.90
51655;DHT22;37732;53.106;7.030;2022-12-17T02:48:11;-1.30;99.90
51655;DHT22;37732;53.106;7.030;2022-12-17T02:50:57;-0.50;99.90
51655;DHT22;37732;53.106;7.030;2022-12-17T02:53:43;-0.50;99.90
51655;DHT22;37732;53.106;7.030;2022-12-17T02:56:27;-1.20;99.90
51655;DHT22;37732;53.106;7.030;2022-12-17T02:59:12;-1.20;99.90
51655;DHT22;37732;53.106;7.030;2022-12-17T03:01:57;-1.20;99.90
51655;DHT22;37732;53.106;7.030;2022-12-17T03:04:42;-1.20;99.90
51655;DHT22;37732;53.106;7.030;2022-12-17T03:07:26;-1.20;99.90
51655;DHT22;37732;53.106;7.030;2022-12-17T03:10:10;-1.00;99.90
51655;DHT22;37732;53.106;7.030;2022-12-17T03:12:55;-1.20;99.90
51655;DHT22;37732;53.106;7.030;2022-12-17T03:15:39;-1.20;99.90
51655;DHT22;37732;53.106;7.030;2022-12-17T03:18:24;-1.20;99.90
51655;DHT22;37732;53.106;7.030;2022-12-17T03:21:08;-1.20;99.90
51655;DHT22;37732;53.106;7.030;2022-12-17T03:23:52;-1.20;99.90
51655;DHT22;37732;53.106;7.030;2022-12-17T03:26:37;-2.30;99.90
51655;DHT22;37732;53.106;7.030;2022-12-17T03:29:21;-1.20;99.90
51655;DHT22;37732;53.106;7.030;2022-12-17T03:32:05;-1.20;99.90
51655;DHT22;37732;53.106;7.030;2022-12-17T03:34:50;-1.20;99.90
51655;DHT22;37732;53.106;7.030;2022-12-17T03:37:34;-1.20;99.90
51655;DHT22;37732;53.106;7.030;2022-12-17T03:40:18;-1.20;99.90
51655;DHT22;37732;53.106;7.030;2022-12-17T03:43:07;-1.20;99.90
51655;DHT22;37732;53.106;7.030;2022-12-17T03:45:53;-1.20;99.90
51655;DHT22;37732;53.106;7.030;2022-12-17T03:48:37;-1.20;99.90
51655;DHT22;37732;53.106;7.030;2022-12-17T03:51:22;-1.20;99.90
51655;DHT22;37732;53.106;7.030;2022-12-17T03:54:06;-1.20;99.90
51655;DHT22;37732;53.106;7.030;2022-12-17T03:56:51;-1.20;99.90
51655;DHT22;37732;53.106;7.030;2022-12-17T03:59:35;-1.20;99.90
51655;DHT22;37732;53.106;7.030;2022-12-17T04:02:19;-0.40;99.90
51655;DHT22;37732;53.106;7.030;2022-12-17T04:05:03;-0.30;99.90
51655;DHT22;37732;53.106;7.030;2022-12-17T04:07:48;-1.20;99.90
51655;DHT22;37732;53.106;7.030;2022-12-17T04:10:32;-1.10;99.90
51655;DHT22;37732;53.106;7.030;2022-12-17T04:13:16;-1.30;99.90
51655;DHT22;37732;53.106;7.030;2022-12-17T04:16:01;-1.30;99.90
51655;DHT22;37732;53.106;7.030;2022-12-17T04:18:45;-1.30;99.90
51655;DHT22;37732;53.106;7.030;2022-12-17T04:21:29;-1.30;99.90
51655;DHT22;37732;53.106;7.030;2022-12-17T04:24:14;-1.30;99.90
51655;DHT22;37732;53.106;7.030;2022-12-17T04:26:58;-1.30;99.90
51655;DHT22;37732;53.106;7.030;2022-12-17T04:29:42;-1.30;99.90
51655;DHT22;37732;53.106;7.030;2022-12-17T04:32:27;-0.90;99.90
51655;DHT22;37732;53.106;7.030;2022-12-17T04:35:11;-1.40;99.90
51655;DHT22;37732;53.106;7.030;2022-12-17T04:38:09;-1.40;99.90
51655;DHT22;37732;53.106;7.030;2022-12-17T04:40:54;-0.20;99.90
51655;DHT22;37732;53.106;7.030;2022-12-17T04:43:38;-1.00;99.90
51655;DHT22;37732;53.106;7.030;2022-12-17T04:46:23;-1.40;99.90
51655;DHT22;37732;53.106;7.030;2022-12-17T04:49:07;-1.40;99.90
51655;DHT22;37732;53.106;7.030;2022-12-17T04:51:51;-0.40;99.90
51655;DHT22;37732;53.106;7.030;2022-12-17T04:54:36;-1.50;99.90
51655;DHT22;37732;53.106;7.030;2022-12-17T04:57:20;-1.50;99.90
51655;DHT22;37732;53.106;7.030;2022-12-17T05:00:05;-1.50;99.90
51655;DHT22;37732;53.106;7.030;2022-12-17T05:02:49;-1.50;99.90
51655;DHT22;37732;53.106;7.030;2022-12-17T05:05:41;-1.60;99.90
51655;DHT22;37732;53.106;7.030;2022-12-17T05:08:26;-1.60;99.90
51655;DHT22;37732;53.106;7.030;2022-12-17T05:11:10;-1.50;99.90
51655;DHT22;37732;53.106;7.030;2022-12-17T05:13:54;-0.40;99.90
51655;DHT22;37732;53.106;7.030;2022-12-17T05:16:39;-1.50;99.90
51655;DHT22;37732;53.106;7.030;2022-12-17T05:19:23;-1.50;99.90
51655;DHT22;37732;53.106;7.030;2022-12-17T05:22:07;-1.50;99.90
51655;DHT22;37732;53.106;7.030;2022-12-17T05:24:52;-1.60;99.90
51655;DHT22;37732;53.106;7.030;2022-12-17T05:27:36;-1.60;99.90
51655;DHT22;37732;53.106;7.030;2022-12-17T05:30:20;-1.50;99.90
51655;DHT22;37732;53.106;7.030;2022-12-17T05:33:04;-1.50;99.90
51655;DHT22;37732;53.106;7.030;2022-12-17T05:35:49;-1.50;99.90
51655;DHT22;37732;53.106;7.030;2022-12-17T05:38:33;-1.50;99.90
51655;DHT22;37732;53.106;7.030;2022-12-17T05:41:17;-1.60;99.90
51655;DHT22;37732;53.106;7.030;2022-12-17T05:44:02;-0.40;99.90
51655;DHT22;37732;53.106;7.030;2022-12-17T05:46:46;-1.60;99.90
51655;DHT22;37732;53.106;7.030;2022-12-17T05:49:31;-1.60;99.90
51655;DHT22;37732;53.106;7.030;2022-12-17T05:52:15;-1.60;99.90
51655;DHT22;37732;53.106;7.030;2022-12-17T05:54:59;-1.70;99.90
51655;DHT22;37732;53.106;7.030;2022-12-17T05:57:44;-1.70;99.90
51655;DHT22;37732;53.106;7.030;2022-12-17T06:00:28;-1.70;99.90
51655;DHT22;37732;53.106;7.030;2022-12-17T06:03:12;-1.70;99.90
51655;DHT22;37732;53.106;7.030;2022-12-17T06:05:56;-1.70;99.90
51655;DHT22;37732;53.106;7.030;2022-12-17T06:08:41;-1.70;99.90
51655;DHT22;37732;53.106;7.030;2022-12-17T06:11:26;-1.60;99.90
51655;DHT22;37732;53.106;7.030;2022-12-17T06:14:10;-1.70;99.90
51655;DHT22;37732;53.106;7.030;2022-12-17T06:16:54;-1.70;99.90
51655;DHT22;37732;53.106;7.030;2022-12-17T06:19:38;-1.70;99.90
51655;DHT22;37732;53.106;7.030;2022-12-17T06:22:23;-1.60;99.90
51655;DHT22;37732;53.106;7.030;2022-12-17T06:25:08;-1.60;99.90
51655;DHT22;37732;53.106;7.030;2022-12-17T06:27:59;-1.60;99.90
51655;DHT22;37732;53.106;7.030;2022-12-17T06:30:52;-1.60;99.90
51655;DHT22;37732;53.106;7.030;2022-12-17T06:33:36;-1.60;99.90
51655;DHT22;37732;53.106;7.030;2022-12-17T06:36:20;-1.60;99.90
51655;DHT22;37732;53.106;7.030;2022-12-17T06:39:05;-1.60;99.90
51655;DHT22;37732;53.106;7.030;2022-12-17T06:41:49;-1.60;99.90
51655;DHT22;37732;53.106;7.030;2022-12-17T06:44:33;-1.60;99.90
51655;DHT22;37732;53.106;7.030;2022-12-17T06:47:18;-1.60;99.90
51655;DHT22;37732;53.106;7.030;2022-12-17T06:50:03;-1.60;99.90
51655;DHT22;37732;53.106;7.030;2022-12-17T06:52:57;-1.60;99.90
51655;DHT22;37732;53.106;7.030;2022-12-17T06:55:42;-1.70;99.90
51655;DHT22;37732;53.106;7.030;2022-12-17T06:58:26;-1.60;99.90
51655;DHT22;37732;53.106;7.030;2022-12-17T07:01:12;-1.60;99.90
51655;DHT22;37732;53.106;7.030;2022-12-17T07:03:56;-1.50;99.90
51655;DHT22;37732;53.106;7.030;2022-12-17T07:06:40;-1.60;99.90
51655;DHT22;37732;53.106;7.030;2022-12-17T07:09:25;-1.60;99.90
51655;DHT22;37732;53.106;7.030;2022-12-17T07:12:09;-1.60;99.90
51655;DHT22;37732;53.106;7.030;2022-12-17T07:14:54;-1.30;99.90
51655;DHT22;37732;53.106;7.030;2022-12-17T07:17:38;-1.50;99.90
51655;DHT22;37732;53.106;7.030;2022-12-17T07:20:23;-1.70;99.90
51655;DHT22;37732;53.106;7.030;2022-12-17T07:23:07;-1.70;99.90
51655;DHT22;37732;53.106;7.030;2022-12-17T07:25:52;-1.70;99.90
51655;DHT22;37732;53.106;7.030;2022-12-17T07:28:36;-1.70;99.90
51655;DHT22;37732;53.106;7.030;2022-12-17T07:31:20;-1.80;99.90
51655;DHT22;37732;53.106;7.030;2022-12-17T07:34:04;-1.80;99.90
51655;DHT22;37732;53.106;7.030;2022-12-17T07:36:49;-1.80;99.90
51655;DHT22;37732;53.106;7.030;2022-12-17T07:39:33;-1.70;99.90
51655;DHT22;37732;53.106;7.030;2022-12-17T07:42:17;-1.70;99.90
51655;DHT22;37732;53.106;7.030;2022-12-17T07:45:01;-1.80;99.90
51655;DHT22;37732;53.106;7.030;2022-12-17T07:47:53;-1.80;99.90
51655;DHT22;37732;53.106;7.030;2022-12-17T07:50:37;-1.80;99.90
51655;DHT22;37732;53.106;7.030;2022-12-17T07:53:21;-1.80;99.90
51655;DHT22;37732;53.106;7.030;2022-12-17T07:56:06;-1.40;99.90
51655;DHT22;37732;53.106;7.030;2022-12-17T07:58:50;-1.80;99.90
51655;DHT22;37732;53.106;7.030;2022-12-17T08:01:35;-1.80;99.90
51655;DHT22;37732;53.106;7.030;2022-12-17T08:04:19;-1.80;99.90
51655;DHT22;37732;53.106;7.030;2022-12-17T08:07:03;-0.70;99.90
51655;DHT22;37732;53.106;7.030;2022-12-17T08:09:48;-1.70;99.90
51655;DHT22;37732;53.106;7.030;2022-12-17T08:12:32;-1.80;99.90
51655;DHT22;37732;53.106;7.030;2022-12-17T08:15:16;-1.80;99.90
51655;DHT22;37732;53.106;7.030;2022-12-17T08:18:01;-1.80;99.90
51655;DHT22;37732;53.106;7.030;2022-12-17T08:20:45;-1.80;99.90
51655;DHT22;37732;53.106;7.030;2022-12-17T08:23:29;-1.90;99.90
51655;DHT22;37732;53.106;7.030;2022-12-17T08:26:13;-1.50;99.90
51655;DHT22;37732;53.106;7.030;2022-12-17T08:28:57;-1.80;99.90
51655;DHT22;37732;53.106;7.030;2022-12-17T08:31:42;-1.90;99.90
51655;DHT22;37732;53.106;7.030;2022-12-17T08:34:26;-1.90;99.90
51655;DHT22;37732;53.106;7.030;2022-12-17T08:37:10;-1.80;99.90
51655;DHT22;37732;53.106;7.030;2022-12-17T08:39:54;-0.60;99.90
51655;DHT22;37732;53.106;7.030;2022-12-17T08:42:39;-1.90;99.90
51655;DHT22;37732;53.106;7.030;2022-12-17T08:45:23;-1.90;99.90
51655;DHT22;37732;53.106;7.030;2022-12-17T08:48:07;-1.90;99.90
51655;DHT22;37732;53.106;7.030;2022-12-17T08:50:52;-1.90;99.90
51655;DHT22;37732;53.106;7.030;2022-12-17T08:53:36;-1.70;99.90
51655;DHT22;37732;53.106;7.030;2022-12-17T08:56:21;-1.80;99.90
51655;DHT22;37732;53.106;7.030;2022-12-17T08:59:05;-1.60;99.90
51655;DHT22;37732;53.106;7.030;2022-12-17T09:01:50;-1.80;99.90
51655;DHT22;37732;53.106;7.030;2022-12-17T09:04:34;-1.80;99.90
51655;DHT22;37732;53.106;7.030;2022-12-17T09:07:18;-1.30;99.90
51655;DHT22;37732;53.106;7.030;2022-12-17T09:10:03;-1.90;99.90
51655;DHT22;37732;53.106;7.030;2022-12-17T09:12:47;-1.90;99.90
51655;DHT22;37732;53.106;7.030;2022-12-17T09:15:32;-1.90;99.90
51655;DHT22;37732;53.106;7.030;2022-12-17T09:18:18;-1.90;99.90
51655;DHT22;37732;53.106;7.030;2022-12-17T09:21:02;-1.90;99.90
51655;DHT22;37732;53.106;7.030;2022-12-17T09:23:46;-1.90;99.90
51655;DHT22;37732;53.106;7.030;2022-12-17T09:26:31;-1.90;99.90
51655;DHT22;37732;53.106;7.030;2022-12-17T09:29:15;-1.90;99.90
51655;DHT22;37732;53.106;7.030;2022-12-17T09:32:00;-1.90;99.90
51655;DHT22;37732;53.106;7.030;2022-12-17T09:34:44;-0.50;99.90
51655;DHT22;37732;53.106;7.030;2022-12-17T09:37:28;-1.00;99.90
51655;DHT22;37732;53.106;7.030;2022-12-17T09:40:20;-1.80;99.90
51655;DHT22;37732;53.106;7.030;2022-12-17T09:43:31;-1.80;99.90
51655;DHT22;37732;53.106;7.030;2022-12-17T09:46:23;-1.80;99.90
51655;DHT22;37732;53.106;7.030;2022-12-17T09:49:25;-1.80;99.90
51655;DHT22;37732;53.106;7.030;2022-12-17T09:52:18;-1.80;99.90
51655;DHT22;37732;53.106;7.030;2022-12-17T09:58:02;-1.80;99.90
51655;DHT22;37732;53.106;7.030;2022-12-17T10:00:55;-1.80;99.90
51655;DHT22;37732;53.106;7.030;2022-12-17T10:03:42;-1.80;99.90
51655;DHT22;37732;53.106;7.030;2022-12-17T10:06:45;-1.90;99.90
51655;DHT22;37732;53.106;7.030;2022-12-17T10:09:30;-1.80;99.90
51655;DHT22;37732;53.106;7.030;2022-12-17T10:12:18;-1.80;99.90
51655;DHT22;37732;53.106;7.030;2022-12-17T10:15:05;-1.80;99.90
51655;DHT22;37732;53.106;7.030;2022-12-17T10:17:49;-1.70;99.90
51655;DHT22;37732;53.106;7.030;2022-12-17T10:20:47;-1.70;99.90
51655;DHT22;37732;53.106;7.030;2022-12-17T10:23:33;-1.70;99.90
51655;DHT22;37732;53.106;7.030;2022-12-17T10:26:19;-1.70;99.90
51655;DHT22;37732;53.106;7.030;2022-12-17T10:29:12;-1.70;99.90
51655;DHT22;37732;53.106;7.030;2022-12-17T10:31:59;-1.60;99.90
51655;DHT22;37732;53.106;7.030;2022-12-17T10:34:51;-1.50;99.90
51655;DHT22;37732;53.106;7.030;2022-12-17T10:37:35;-1.60;99.90
51655;DHT22;37732;53.106;7.030;2022-12-17T10:40:26;-0.30;99.90
51655;DHT22;37732;53.106;7.030;2022-12-17T10:46:10;-1.40;99.90
51655;DHT22;37732;53.106;7.030;2022-12-17T10:49:08;-1.40;99.90
51655;DHT22;37732;53.106;7.030;2022-12-17T10:51:58;-1.50;99.90
51655;DHT22;37732;53.106;7.030;2022-12-17T10:54:43;-1.40;99.90
51655;DHT22;37732;53.106;7.030;2022-12-17T10:57:38;-1.20;99.90
51655;DHT22;37732;53.106;7.030;2022-12-17T11:00:24;-1.40;99.90
51655;DHT22;37732;53.106;7.030;2022-12-17T11:06:37;-1.30;99.90
51655;DHT22;37732;53.106;7.030;2022-12-17T11:09:31;-1.20;99.90
51655;DHT22;37732;53.106;7.030;2022-12-17T11:12:17;-1.30;99.90
51655;DHT22;37732;53.106;7.030;2022-12-17T11:15:14;-1.30;99.90
51655;DHT22;37732;53.106;7.030;2022-12-17T11:18:01;-1.30;99.90
51655;DHT22;37732;53.106;7.030;2022-12-17T11:20:49;-1.30;99.90
51655;DHT22;37732;53.106;7.030;2022-12-17T11:23:36;-1.20;99.90
51655;DHT22;37732;53.106;7.030;2022-12-17T11:26:24;-1.20;99.90
51655;DHT22;37732;53.106;7.030;2022-12-17T11:29:12;-1.20;99.90
51655;DHT22;37732;53.106;7.030;2022-12-17T11:32:31;-1.10;99.90
51655;DHT22;37732;53.106;7.030;2022-12-17T11:35:25;-1.10;99.90
51655;DHT22;37732;53.106;7.030;2022-12-17T11:38:31;-1.10;99.90
51655;DHT22;37732;53.106;7.030;2022-12-17T11:47:58;-1.00;99.90
51655;DHT22;37732;53.106;7.030;2022-12-17T11:50:49;-0.90;99.90
51655;DHT22;37732;53.106;7.030;2022-12-17T12:00:15;-2.00;99.90
51655;DHT22;37732;53.106;7.030;2022-12-17T12:03:29;-0.80;99.90
51655;DHT22;37732;53.106;7.030;2022-12-17T12:09:54;-0.80;99.90
51655;DHT22;37732;53.106;7.030;2022-12-17T12:16:18;-0.70;99.90
51655;DHT22;37732;53.106;7.030;2022-12-17T12:19:21;-0.60;99.90
51655;DHT22;37732;53.106;7.030;2022-12-17T12:22:17;-0.70;99.90
51655;DHT22;37732;53.106;7.030;2022-12-17T12:31:55;-0.60;99.90
51655;DHT22;37732;53.106;7.030;2022-12-17T12:34:42;-0.50;99.90
51655;DHT22;37732;53.106;7.030;2022-12-17T12:37:28;-0.50;99.90
51655;DHT22;37732;53.106;7.030;2022-12-17T12:46:32;-0.50;99.90
51655;DHT22;37732;53.106;7.030;2022-12-17T12:49:33;-0.40;99.90
51655;DHT22;37732;53.106;7.030;2022-12-17T12:52:23;-0.40;99.90
51655;DHT22;37732;53.106;7.030;2022-12-17T12:55:07;-0.40;99.90
51655;DHT22;37732;53.106;7.030;2022-12-17T12:58:23;-0.40;99.90
51655;DHT22;37732;53.106;7.030;2022-12-17T13:01:07;-0.30;99.90
51655;DHT22;37732;53.106;7.030;2022-12-17T13:03:54;-0.40;99.90
51655;DHT22;37732;53.106;7.030;2022-12-17T13:06:55;-0.40;99.90
51655;DHT22;37732;53.106;7.030;2022-12-17T13:12:14;0.70;99.90
51655;DHT22;37732;53.106;7.030;2022-12-17T13:24:54;-0.40;99.90
51655;DHT22;37732;53.106;7.030;2022-12-17T13:41:31;-0.40;99.90
51655;DHT22;37732;53.106;7.030;2022-12-17T13:44:01;-0.40;99.90
51655;DHT22;37732;53.106;7.030;2022-12-17T13:46:49;-0.40;99.90
51655;DHT22;37732;53.106;7.030;2022-12-17T13:49:23;-0.40;99.90
51655;DHT22;37732;53.106;7.030;2022-12-17T13:52:13;0.70;99.90
51655;DHT22;37732;53.106;7.030;2022-12-17T13:54:41;-0.40;99.90
51655;DHT22;37732;53.106;7.030;2022-12-17T13:57:23;-0.40;99.90
51655;DHT22;37732;53.106;7.030;2022-12-17T14:02:30;-0.40;99.90
51655;DHT22;37732;53.106;7.030;2022-12-17T14:05:00;-0.40;99.90
51655;DHT22;37732;53.106;7.030;2022-12-17T14:07:27;-0.40;99.90
51655;DHT22;37732;53.106;7.030;2022-12-17T14:09:54;-0.40;99.90
51655;DHT22;37732;53.106;7.030;2022-12-17T14:12:23;-0.20;99.90
51655;DHT22;37732;53.106;7.030;2022-12-17T14:14:54;-0.30;99.90
51655;DHT22;37732;53.106;7.030;2022-12-17T14:20:21;-0.30;99.90
51655;DHT22;37732;53.106;7.030;2022-12-17T14:22:55;-0.40;99.90
51655;DHT22;37732;53.106;7.030;2022-12-17T14:25:28;-0.30;99.90
51655;DHT22;37732;53.106;7.030;2022-12-17T14:28:06;-0.30;99.90
51655;DHT22;37732;53.106;7.030;2022-12-17T14:30:43;-0.40;99.90
51655;DHT22;37732;53.106;7.030;2022-12-17T14:33:42;-0.40;99.90
51655;DHT22;37732;53.106;7.030;2022-12-17T14:39:02;0.20;99.90
51655;DHT22;37732;53.106;7.030;2022-12-17T14:41:35;-0.50;99.90
51655;DHT22;37732;53.106;7.030;2022-12-17T14:44:24;0.80;99.90
51655;DHT22;37732;53.106;7.030;2022-12-17T14:47:19;-0.50;99.90
51655;DHT22;37732;53.106;7.030;2022-12-17T14:52:49;-0.50;99.90
51655;DHT22;37732;53.106;7.030;2022-12-17T14:55:55;-0.60;99.90
51655;DHT22;37732;53.106;7.030;2022-12-17T14:58:25;-0.60;99.90
51655;DHT22;37732;53.106;7.030;2022-12-17T15:01:05;-0.60;99.90
51655;DHT22;37732;53.106;7.030;2022-12-17T15:03:36;-0.60;99.90
51655;DHT22;37732;53.106;7.030;2022-12-17T15:06:10;-0.70;99.90
51655;DHT22;37732;53.106;7.030;2022-12-17T15:08:55;-0.70;99.90
51655;DHT22;37732;53.106;7.030;2022-12-17T15:11:21;-0.70;99.90
51655;DHT22;37732;53.106;7.030;2022-12-17T15:13:47;-0.80;99.90
51655;DHT22;37732;53.106;7.030;2022-12-17T15:16:12;-0.80;99.90
51655;DHT22;37732;53.106;7.030;2022-12-17T15:18:38;-0.80;99.90
51655;DHT22;37732;53.106;7.030;2022-12-17T15:21:04;0.30;99.90
51655;DHT22;37732;53.106;7.030;2022-12-17T15:23:30;-0.80;99.90
51655;DHT22;37732;53.106;7.030;2022-12-17T15:25:56;-0.80;99.90
51655;DHT22;37732;53.106;7.030;2022-12-17T15:28:25;-0.10;99.90
51655;DHT22;37732;53.106;7.030;2022-12-17T15:30:51;-0.90;99.90
51655;DHT22;37732;53.106;7.030;2022-12-17T15:33:17;-0.10;99.90
51655;DHT22;37732;53.106;7.030;2022-12-17T15:35:42;-1.00;99.90
51655;DHT22;37732;53.106;7.030;2022-12-17T15:38:09;0.10;99.90
51655;DHT22;37732;53.106;7.030;2022-12-17T15:40:36;-1.00;99.90
51655;DHT22;37732;53.106;7.030;2022-12-17T15:43:03;-1.10;99.90
51655;DHT22;37732;53.106;7.030;2022-12-17T15:45:43;-1.10;99.90
51655;DHT22;37732;53.106;7.030;2022-12-17T15:48:10;-1.10;99.90
51655;DHT22;37732;53.106;7.030;2022-12-17T15:50:37;-1.10;99.90
51655;DHT22;37732;53.106;7.030;2022-12-17T15:53:03;-1.20;99.90
51655;DHT22;37732;53.106;7.030;2022-12-17T15:55:29;-1.20;99.90
51655;DHT22;37732;53.106;7.030;2022-12-17T15:57:55;-1.20;99.90
51655;DHT22;37732;53.106;7.030;2022-12-17T16:00:21;-1.30;99.90
51655;DHT22;37732;53.106;7.030;2022-12-17T16:02:47;-0.70;99.90
51655;DHT22;37732;53.106;7.030;2022-12-17T16:05:13;-1.30;99.90
51655;DHT22;37732;53.106;7.030;2022-12-17T16:07:39;-1.30;99.90
51655;DHT22;37732;53.106;7.030;2022-12-17T16:10:09;-1.30;99.90
51655;DHT22;37732;53.106;7.030;2022-12-17T16:12:34;-1.40;99.90
51655;DHT22;37732;53.106;7.030;2022-12-17T16:15:01;-1.40;99.90
51655;DHT22;37732;53.106;7.030;2022-12-17T16:17:28;-1.40;99.90
51655;DHT22;37732;53.106;7.030;2022-12-17T16:19:53;-1.40;99.90
51655;DHT22;37732;53.106;7.030;2022-12-17T16:22:19;-1.40;99.90
51655;DHT22;37732;53.106;7.030;2022-12-17T16:24:45;-1.40;99.90
51655;DHT22;37732;53.106;7.030;2022-12-17T16:27:10;-1.40;99.90
51655;DHT22;37732;53.106;7.030;2022-12-17T16:29:36;-1.40;99.90
51655;DHT22;37732;53.106;7.030;2022-12-17T16:32:02;-1.50;99.90
51655;DHT22;37732;53.106;7.030;2022-12-17T16:34:28;-1.50;99.90
51655;DHT22;37732;53.106;7.030;2022-12-17T16:36:54;-1.50;99.90
51655;DHT22;37732;53.106;7.030;2022-12-17T16:39:19;-1.00;99.90
51655;DHT22;37732;53.106;7.030;2022-12-17T16:41:45;-1.60;99.90
51655;DHT22;37732;53.106;7.030;2022-12-17T16:44:11;-1.60;99.90
51655;DHT22;37732;53.106;7.030;2022-12-17T16:46:41;-1.60;99.90
51655;DHT22;37732;53.106;7.030;2022-12-17T16:51:38;-1.60;99.90
51655;DHT22;37732;53.106;7.030;2022-12-17T16:54:06;-0.60;99.90
51655;DHT22;37732;53.106;7.030;2022-12-17T16:56:32;-1.60;99.90
51655;DHT22;37732;53.106;7.030;2022-12-17T16:59:00;-1.60;99.90
51655;DHT22;37732;53.106;7.030;2022-12-17T17:01:28;-1.50;99.90
51655;DHT22;37732;53.106;7.030;2022-12-17T17:03:54;-1.70;99.90
51655;DHT22;37732;53.106;7.030;2022-12-17T17:06:21;-1.70;99.90
51655;DHT22;37732;53.106;7.030;2022-12-17T17:08:48;-0.90;99.90
51655;DHT22;37732;53.106;7.030;2022-12-17T17:11:22;-1.70;99.90
51655;DHT22;37732;53.106;7.030;2022-12-17T17:13:53;-1.70;99.90
51655;DHT22;37732;53.106;7.030;2022-12-17T17:16:21;-1.70;99.90
51655;DHT22;37732;53.106;7.030;2022-12-17T17:18:48;-1.70;99.90
51655;DHT22;37732;53.106;7.030;2022-12-17T17:23:43;-1.70;99.90
51655;DHT22;37732;53.106;7.030;2022-12-17T17:26:09;-1.70;99.90
51655;DHT22;37732;53.106;7.030;2022-12-17T17:28:35;-1.70;99.90
51655;DHT22;37732;53.106;7.030;2022-12-17T17:31:02;-1.70;99.90
51655;DHT22;37732;53.106;7.030;2022-12-17T17:33:29;-1.70;99.90
51655;DHT22;37732;53.106;7.030;2022-12-17T17:36:02;-1.80;99.90
51655;DHT22;37732;53.106;7.030;2022-12-17T17:38:28;-1.80;99.90
51655;DHT22;37732;53.106;7.030;2022-12-17T17:40:57;-1.80;99.90
51655;DHT22;37732;53.106;7.030;2022-12-17T17:43:23;-1.80;99.90
51655;DHT22;37732;53.106;7.030;2022-12-17T17:45:48;-1.80;99.90
51655;DHT22;37732;53.106;7.030;2022-12-17T17:48:14;-1.10;99.90
51655;DHT22;37732;53.106;7.030;2022-12-17T17:50:40;-1.80;99.90
51655;DHT22;37732;53.106;7.030;2022-12-17T17:53:05;-1.80;99.90
51655;DHT22;37732;53.106;7.030;2022-12-17T17:55:34;-1.40;99.90
51655;DHT22;37732;53.106;7.030;2022-12-17T17:58:00;-1.80;99.90
51655;DHT22;37732;53.106;7.030;2022-12-17T18:00:26;-1.80;99.90
51655;DHT22;37732;53.106;7.030;2022-12-17T18:02:52;-1.80;99.90
51655;DHT22;37732;53.106;7.030;2022-12-17T18:05:17;-1.90;99.90
51655;DHT22;37732;53.106;7.030;2022-12-17T18:07:43;-1.80;99.90
51655;DHT22;37732;53.106;7.030;2022-12-17T18:10:09;-1.80;99.90
51655;DHT22;37732;53.106;7.030;2022-12-17T18:12:35;-1.80;99.90
51655;DHT22;37732;53.106;7.030;2022-12-17T18:15:19;-1.80;99.90
51655;DHT22;37732;53.106;7.030;2022-12-17T18:17:48;-1.80;99.90
51655;DHT22;37732;53.106;7.030;2022-12-17T18:20:14;-1.90;99.90
51655;DHT22;37732;53.106;7.030;2022-12-17T18:22:40;-1.90;99.90
51655;DHT22;37732;53.106;7.030;2022-12-17T18:25:06;-1.90;99.90
51655;DHT22;37732;53.106;7.030;2022-12-17T18:27:32;-1.90;99.90
51655;DHT22;37732;53.106;7.030;2022-12-17T18:29:57;-1.20;99.90
51655;DHT22;37732;53.106;7.030;2022-12-17T18:32:23;-1.40;99.90
51655;DHT22;37732;53.106;7.030;2022-12-17T18:34:49;-1.80;99.90
51655;DHT22;37732;53.106;7.030;2022-12-17T18:37:15;-1.50;99.90
51655;DHT22;37732;53.106;7.030;2022-12-17T18:39:40;-1.90;99.90
51655;DHT22;37732;53.106;7.030;2022-12-17T18:42:07;-1.90;99.90